createdAt,value
2023-02-22T00:00:50.054Z,3.70
2023-02-22T00:03:25.032Z,3.70
2023-02-22T00:05:55.325Z,3.77
2023-02-22T00:08:30.404Z,3.81
2023-02-22T00:10:58.726Z,3.76
2023-02-22T00:13:29.603Z,3.67
2023-02-22T00:15:58.548Z,3.69
2023-02-22T00:18:28.029Z,3.64
2023-02-22T00:20:59.117Z,3.70
2023-02-22T00:23:29.684Z,3.55
2023-02-22T00:25:59.361Z,3.60
2023-02-22T00:28:30.695Z,3.60
2023-02-22T00:30:59.766Z,3.55
2023-02-22T00:33:27.688Z,3.63
2023-02-22T00:35:55.590Z,3.48
2023-02-22T00:38:23.579Z,3.50
2023-02-22T00:40:51.845Z,3.47
2023-02-22T00:43:19.683Z,3.45
2023-02-22T00:45:50.265Z,3.37
2023-02-22T00:48:19.570Z,3.43
2023-02-22T00:50:49.117Z,3.39
2023-02-22T00:53:17.575Z,3.34
2023-02-22T00:55:45.455Z,3.35
2023-02-22T00:58:13.613Z,3.35
2023-02-22T01:00:43.750Z,3.30
2023-02-22T01:03:15.740Z,3.27
2023-02-22T01:05:43.988Z,3.25
2023-02-22T01:08:14.607Z,3.20
2023-02-22T01:10:42.443Z,3.12
2023-02-22T01:13:12.573Z,3.14
2023-02-22T01:15:42.406Z,3.17
2023-02-22T01:18:11.690Z,3.13
2023-02-22T01:20:41.106Z,3.08
2023-02-22T01:23:10.610Z,3.08
2023-02-22T01:25:38.719Z,3.10
2023-02-22T01:28:08.151Z,3.12
2023-02-22T01:30:37.500Z,3.12
2023-02-22T01:33:08.027Z,3.13
2023-02-22T01:35:38.502Z,3.17
2023-02-22T01:38:09.596Z,3.21
2023-02-22T01:40:41.857Z,3.28
2023-02-22T01:43:18.333Z,3.30
2023-02-22T01:45:52.720Z,3.25
2023-02-22T01:48:26.084Z,3.23
2023-02-22T01:50:58.380Z,3.21
2023-02-22T01:53:32.816Z,3.18
2023-02-22T01:56:01.777Z,3.12
2023-02-22T01:58:34.150Z,3.11
2023-02-22T02:01:02.283Z,3.12
2023-02-22T02:03:34.396Z,3.13
2023-02-22T02:06:05.973Z,3.08
2023-02-22T02:08:42.382Z,3.08
2023-02-22T02:11:10.953Z,3.03
2023-02-22T02:13:39.477Z,3.02
2023-02-22T02:16:08.268Z,3.02
2023-02-22T02:18:36.621Z,3.05
2023-02-22T02:21:44.998Z,3.02
2023-02-22T02:24:40.242Z,2.98
2023-02-22T02:27:18.915Z,3.02
2023-02-22T02:30:31.588Z,2.97
2023-02-22T02:33:06.458Z,3.02
2023-02-22T02:35:46.319Z,2.98
2023-02-22T02:38:27.034Z,3.01
2023-02-22T02:41:05.462Z,3.01
2023-02-22T02:43:39.969Z,3.00
2023-02-22T02:46:13.360Z,2.95
2023-02-22T02:48:50.437Z,2.91
2023-02-22T02:51:20.816Z,2.90
2023-02-22T02:53:51.387Z,2.94
2023-02-22T02:56:19.468Z,2.93
2023-02-22T02:58:51.163Z,2.92
2023-02-22T03:01:29.210Z,2.87
2023-02-22T03:04:14.026Z,2.87
2023-02-22T03:07:08.744Z,2.88
2023-02-22T03:09:50.033Z,2.90
2023-02-22T03:12:29.089Z,2.89
2023-02-22T03:15:09.408Z,2.87
2023-02-22T03:17:48.721Z,2.86
2023-02-22T03:20:31.566Z,2.88
2023-02-22T03:23:09.719Z,2.88
2023-02-22T03:25:44.469Z,2.85
2023-02-22T03:28:18.610Z,2.85
2023-02-22T03:30:51.814Z,2.87
2023-02-22T03:33:28.733Z,2.90
2023-02-22T03:36:02.832Z,2.96
2023-02-22T03:38:34.786Z,2.98
2023-02-22T03:41:05.783Z,3.02
2023-02-22T03:43:39.333Z,2.96
2023-02-22T03:46:14.477Z,2.89
2023-02-22T03:48:49.794Z,2.92
2023-02-22T03:51:19.939Z,2.92
2023-02-22T03:53:52.501Z,2.92
2023-02-22T03:56:27.302Z,2.93
2023-02-22T03:58:56.289Z,2.91
2023-02-22T04:01:24.288Z,2.90
2023-02-22T04:03:53.146Z,2.86
2023-02-22T04:06:23.368Z,2.81
2023-02-22T04:08:51.434Z,2.79
2023-02-22T04:11:19.357Z,2.82
2023-02-22T04:13:47.437Z,2.82
2023-02-22T04:16:15.470Z,2.81
2023-02-22T04:18:43.427Z,2.81
2023-02-22T04:21:12.520Z,2.85
2023-02-22T04:23:45.880Z,2.86
2023-02-22T04:26:14.682Z,2.87
2023-02-22T04:28:44.319Z,2.83
2023-02-22T04:31:17.154Z,2.69
2023-02-22T04:33:45.670Z,2.65
2023-02-22T04:36:17.249Z,2.60
2023-02-22T04:38:47.705Z,2.61
2023-02-22T04:41:16.024Z,2.61
2023-02-22T04:43:44.132Z,2.54
2023-02-22T04:46:17.717Z,2.50
2023-02-22T04:48:46.098Z,2.42
2023-02-22T04:51:15.619Z,2.38
2023-02-22T04:53:56.412Z,2.41
2023-02-22T04:56:26.023Z,2.35
2023-02-22T04:58:53.874Z,2.34
2023-02-22T05:01:23.521Z,2.33
2023-02-22T05:03:51.450Z,2.30
2023-02-22T05:06:19.665Z,2.29
2023-02-22T05:08:48.032Z,2.26
2023-02-22T05:11:17.563Z,2.25
2023-02-22T05:13:45.742Z,2.29
2023-02-22T05:16:14.107Z,2.37
2023-02-22T05:18:42.159Z,2.43
2023-02-22T05:21:10.514Z,2.46
2023-02-22T05:23:38.373Z,2.41
2023-02-22T05:26:06.744Z,2.37
2023-02-22T05:28:35.954Z,2.31
2023-02-22T05:31:03.862Z,2.33
2023-02-22T05:33:31.723Z,2.36
2023-02-22T05:35:59.602Z,2.32
2023-02-22T05:38:27.467Z,2.27
2023-02-22T05:40:55.295Z,2.24
2023-02-22T05:43:23.219Z,2.24
2023-02-22T05:45:52.365Z,2.26
2023-02-22T05:48:22.533Z,2.27
2023-02-22T05:50:50.593Z,2.22
2023-02-22T05:53:18.445Z,2.16
2023-02-22T05:55:46.667Z,2.17
2023-02-22T05:58:15.096Z,2.11
2023-02-22T06:00:43.223Z,2.14
2023-02-22T06:03:13.656Z,2.17
2023-02-22T06:05:42.675Z,2.18
2023-02-22T06:08:10.703Z,2.16
2023-02-22T06:10:38.589Z,2.18
2023-02-22T06:13:07.117Z,2.16
2023-02-22T06:15:35.265Z,2.15
2023-02-22T06:18:03.343Z,2.15
2023-02-22T06:20:33.429Z,2.18
2023-02-22T06:23:01.304Z,2.13
2023-02-22T06:25:32.181Z,2.14
2023-02-22T06:28:00.972Z,2.09
2023-02-22T06:30:30.357Z,2.15
2023-02-22T06:32:58.243Z,2.16
2023-02-22T06:35:26.089Z,2.17
2023-02-22T06:37:55.416Z,2.16
2023-02-22T06:40:23.369Z,2.20
2023-02-22T06:42:51.245Z,2.23
2023-02-22T06:45:19.660Z,2.26
2023-02-22T06:47:48.994Z,2.26
2023-02-22T06:50:23.937Z,2.27
2023-02-22T06:52:52.637Z,2.33
2023-02-22T06:55:24.247Z,2.38
2023-02-22T06:57:52.776Z,2.40
2023-02-22T07:00:23.365Z,2.44
2023-02-22T07:02:51.911Z,2.50
2023-02-22T07:05:22.218Z,2.52
2023-02-22T07:07:52.622Z,2.57
2023-02-22T07:10:25.175Z,2.65
2023-02-22T07:12:53.455Z,2.69
2023-02-22T07:15:23.567Z,2.72
2023-02-22T07:17:51.686Z,2.77
2023-02-22T07:20:21.143Z,2.84
2023-02-22T07:22:49.398Z,2.94
2023-02-22T07:25:17.620Z,3.02
2023-02-22T07:27:47.985Z,3.08
2023-02-22T07:30:20.662Z,3.13
2023-02-22T07:32:49.097Z,3.19
2023-02-22T07:35:18.915Z,3.28
2023-02-22T07:37:48.143Z,3.36
2023-02-22T07:40:17.700Z,3.42
2023-02-22T07:42:55.470Z,3.49
2023-02-22T07:45:27.080Z,3.57
2023-02-22T07:47:55.206Z,3.63
2023-02-22T07:50:24.816Z,3.69
2023-02-22T07:52:56.727Z,3.74
2023-02-22T07:55:27.887Z,3.80
2023-02-22T07:57:59.844Z,3.87
2023-02-22T08:00:29.819Z,3.95
2023-02-22T08:02:58.829Z,4.05
2023-02-22T08:05:28.114Z,4.13
2023-02-22T08:07:56.366Z,4.19
2023-02-22T08:10:26.160Z,4.24
2023-02-22T08:12:55.840Z,4.35
2023-02-22T08:15:28.493Z,4.42
2023-02-22T08:17:56.551Z,4.50
2023-02-22T08:20:24.566Z,4.58
2023-02-22T08:22:53.113Z,4.66
2023-02-22T08:25:22.579Z,4.73
2023-02-22T08:27:50.416Z,4.81
2023-02-22T08:30:20.807Z,4.86
2023-02-22T08:32:51.157Z,4.96
2023-02-22T08:35:20.670Z,5.03
2023-02-22T08:37:50.651Z,5.13
2023-02-22T08:40:21.289Z,5.22
2023-02-22T08:42:49.308Z,5.28
2023-02-22T08:45:17.614Z,5.36
2023-02-22T08:47:45.725Z,5.46
2023-02-22T08:50:20.107Z,5.55
2023-02-22T08:52:48.026Z,5.59
2023-02-22T08:55:16.042Z,5.65
2023-02-22T08:57:43.886Z,5.73
2023-02-22T09:00:13.222Z,5.85
2023-02-22T09:02:41.598Z,5.96
2023-02-22T09:05:09.934Z,5.99
2023-02-22T09:07:42.944Z,6.15
2023-02-22T09:10:15.477Z,6.24
2023-02-22T09:12:43.745Z,6.33
2023-02-22T09:15:13.163Z,6.41
2023-02-22T09:17:41.081Z,6.47
2023-02-22T09:20:12.283Z,6.54
2023-02-22T09:22:41.741Z,6.62
2023-02-22T09:25:16.731Z,6.70
2023-02-22T09:27:45.169Z,6.81
2023-02-22T09:30:18.366Z,6.87
2023-02-22T09:32:46.466Z,6.94
2023-02-22T09:35:14.453Z,7.03
2023-02-22T09:37:45.031Z,7.14
2023-02-22T09:40:24.821Z,7.23
2023-02-22T09:43:08.341Z,7.31
2023-02-22T09:45:44.972Z,7.46
2023-02-22T09:48:21.991Z,7.59
2023-02-22T09:50:52.739Z,7.65
2023-02-22T09:53:29.989Z,7.72
2023-02-22T09:56:01.792Z,7.87
2023-02-22T09:58:33.670Z,8.01
2023-02-22T10:01:14.730Z,8.08
2023-02-22T10:03:51.266Z,8.12
2023-02-22T10:06:23.648Z,8.22
2023-02-22T10:08:56.881Z,8.27
2023-02-22T10:11:45.957Z,8.40
2023-02-22T10:14:43.792Z,8.52
2023-02-22T10:17:22.553Z,8.61
2023-02-22T10:20:01.492Z,8.77
2023-02-22T10:22:43.822Z,8.87
2023-02-22T10:25:18.176Z,8.97
2023-02-22T10:27:49.922Z,9.07
2023-02-22T10:30:25.460Z,9.10
2023-02-22T10:33:02.252Z,9.23
2023-02-22T10:35:34.019Z,9.29
2023-02-22T10:38:14.967Z,9.30
2023-02-22T10:40:47.225Z,9.38
2023-02-22T10:43:15.245Z,9.43
2023-02-22T10:45:43.552Z,9.48
2023-02-22T10:48:15.712Z,9.57
2023-02-22T10:50:45.853Z,9.61
2023-02-22T10:53:15.753Z,9.76
2023-02-22T10:56:19.177Z,9.81
2023-02-22T10:58:51.189Z,9.86
2023-02-22T11:01:26.183Z,9.92
2023-02-22T11:03:59.731Z,9.93
2023-02-22T11:06:28.368Z,10.06
2023-02-22T11:09:06.586Z,10.09
2023-02-22T11:11:35.863Z,10.16
2023-02-22T11:14:06.677Z,10.24
2023-02-22T11:16:38.290Z,10.23
2023-02-22T11:19:18.079Z,10.31
2023-02-22T11:21:46.429Z,10.33
2023-02-22T11:26:49.146Z,10.45
2023-02-22T11:29:23.209Z,10.47
2023-02-22T11:31:51.775Z,10.48
2023-02-22T11:34:33.461Z,10.52
2023-02-22T11:37:22.256Z,10.53
2023-02-22T11:40:04.854Z,10.54
2023-02-22T11:42:34.239Z,10.58
2023-02-22T11:45:13.960Z,10.61
2023-02-22T11:47:53.641Z,10.60
2023-02-22T11:50:30.896Z,10.67
2023-02-22T11:53:27.811Z,10.70
2023-02-22T11:56:16.096Z,10.82
2023-02-22T11:58:49.636Z,10.87
2023-02-22T12:01:28.146Z,10.98
2023-02-22T12:04:37.969Z,11.09
2023-02-22T12:07:27.290Z,11.07
2023-02-22T12:10:06.379Z,11.13
2023-02-22T12:12:45.035Z,11.24
2023-02-22T12:15:24.016Z,11.25
2023-02-22T12:18:00.554Z,11.35
2023-02-22T12:20:33.044Z,11.35
2023-02-22T12:23:07.175Z,11.39
2023-02-22T12:25:38.862Z,11.45
2023-02-22T12:28:24.242Z,11.47
2023-02-22T12:31:05.545Z,11.49
2023-02-22T12:33:50.434Z,11.47
2023-02-22T12:36:21.856Z,11.53
2023-02-22T12:38:55.441Z,11.51
2023-02-22T12:41:32.261Z,11.62
2023-02-22T12:44:05.709Z,11.50
2023-02-22T12:46:40.494Z,11.59
2023-02-22T12:49:17.772Z,11.58
2023-02-22T12:51:53.548Z,11.57
2023-02-22T12:54:26.365Z,11.69
2023-02-22T12:57:00.316Z,11.66
2023-02-22T12:59:34.432Z,11.71
2023-02-22T13:02:13.968Z,11.72
2023-02-22T13:04:42.047Z,11.67
2023-02-22T13:07:19.685Z,11.62
2023-02-22T13:10:00.418Z,11.59
2023-02-22T13:12:39.338Z,11.61
2023-02-22T13:15:18.994Z,11.57
2023-02-22T13:17:56.122Z,11.49
2023-02-22T13:20:29.817Z,11.47
2023-02-22T13:23:04.080Z,11.51
2023-02-22T13:25:41.958Z,11.50
2023-02-22T13:28:22.955Z,11.49
2023-02-22T13:31:02.061Z,11.52
2023-02-22T13:33:50.218Z,11.56
2023-02-22T13:36:37.993Z,11.57
2023-02-22T13:39:39.138Z,11.54
2023-02-22T13:42:26.242Z,11.52
2023-02-22T13:45:24.244Z,11.55
2023-02-22T13:48:11.267Z,11.60
2023-02-22T13:50:59.124Z,11.59
2023-02-22T13:53:32.889Z,11.60
2023-02-22T13:56:02.040Z,11.60
2023-02-22T13:58:30.413Z,11.64
2023-02-22T14:00:59.827Z,11.67
2023-02-22T14:03:40.555Z,11.71
2023-02-22T14:06:32.101Z,11.70
2023-02-22T14:09:08.585Z,11.71
2023-02-22T14:11:46.080Z,11.69
2023-02-22T14:14:19.099Z,11.71
2023-02-22T14:17:27.084Z,11.68
2023-02-22T14:20:32.484Z,11.69
2023-02-22T14:23:29.864Z,11.69
2023-02-22T14:26:11.790Z,11.69
2023-02-22T14:28:50.348Z,11.70
2023-02-22T14:31:34.935Z,11.70
2023-02-22T14:34:07.761Z,11.67
2023-02-22T14:36:42.060Z,11.70
2023-02-22T14:39:14.924Z,11.70
2023-02-22T14:41:49.957Z,11.70
2023-02-22T14:44:25.333Z,11.69
2023-02-22T14:46:57.669Z,11.74
2023-02-22T14:49:31.551Z,11.73
2023-02-22T14:52:05.757Z,11.73
2023-02-22T14:54:41.809Z,11.73
2023-02-22T14:57:21.676Z,11.76
2023-02-22T15:00:08.137Z,11.74
2023-02-22T15:02:41.486Z,11.75
2023-02-22T15:05:14.764Z,11.73
2023-02-22T15:07:52.531Z,11.70
2023-02-22T15:10:26.006Z,11.71
2023-02-22T15:13:10.631Z,11.67
2023-02-22T15:15:40.876Z,11.66
2023-02-22T15:18:22.012Z,11.64
2023-02-22T15:20:56.176Z,11.62
2023-02-22T15:23:30.197Z,11.59
2023-02-22T15:25:59.249Z,11.54
2023-02-22T15:28:31.373Z,11.55
2023-02-22T15:31:23.490Z,11.54
2023-02-22T15:33:53.128Z,11.52
2023-02-22T15:36:22.792Z,11.48
2023-02-22T15:38:52.670Z,11.45
2023-02-22T15:41:29.569Z,11.43
2023-02-22T15:44:22.773Z,11.42
2023-02-22T15:46:54.461Z,11.38
2023-02-22T15:49:24.444Z,11.35
2023-02-22T15:52:05.980Z,11.31
2023-02-22T15:54:46.568Z,11.29
2023-02-22T15:57:17.154Z,11.25
2023-02-22T15:59:49.996Z,11.24
2023-02-22T16:02:32.651Z,11.20
2023-02-22T16:05:03.916Z,11.17
2023-02-22T16:07:32.009Z,11.15
2023-02-22T16:10:08.073Z,11.12
2023-02-22T16:12:36.716Z,11.07
2023-02-22T16:15:16.404Z,11.04
2023-02-22T16:17:56.062Z,11.00
2023-02-22T16:20:35.389Z,10.98
2023-02-22T16:23:23.398Z,10.96
2023-02-22T16:26:06.848Z,10.93
2023-02-22T16:28:35.999Z,10.89
2023-02-22T16:31:05.567Z,10.85
2023-02-22T16:33:34.445Z,10.83
2023-02-22T16:36:08.122Z,10.81
2023-02-22T16:38:38.458Z,10.77
2023-02-22T16:41:07.759Z,10.74
2023-02-22T16:43:37.343Z,10.72
2023-02-22T16:46:07.845Z,10.69
2023-02-22T16:48:38.217Z,10.66
2023-02-22T16:51:16.749Z,10.61
2023-02-22T16:53:44.890Z,10.62
2023-02-22T16:56:16.731Z,10.54
2023-02-22T16:58:46.452Z,10.51
2023-02-22T17:01:15.680Z,10.47
2023-02-22T17:03:43.636Z,10.44
2023-02-22T17:06:11.508Z,10.39
2023-02-22T17:08:39.808Z,10.38
2023-02-22T17:11:08.914Z,10.36
2023-02-22T17:13:36.962Z,10.32
2023-02-22T17:16:05.620Z,10.28
2023-02-22T17:18:35.701Z,10.25
2023-02-22T17:21:03.999Z,10.21
2023-02-22T17:23:31.823Z,10.14
2023-02-22T17:26:02.165Z,10.07
2023-02-22T17:28:31.399Z,10.04
2023-02-22T17:31:01.806Z,10.00
2023-02-22T17:33:32.877Z,9.89
2023-02-22T17:36:04.078Z,9.86
2023-02-22T17:38:34.609Z,9.78
2023-02-22T17:41:03.437Z,9.76
2023-02-22T17:43:31.305Z,9.69
2023-02-22T17:46:00.140Z,9.63
2023-02-22T17:48:28.104Z,9.65
2023-02-22T17:50:56.279Z,9.64
2023-02-22T17:53:26.632Z,9.63
2023-02-22T17:55:55.719Z,9.56
2023-02-22T17:58:25.772Z,9.54
2023-02-22T18:00:59.289Z,9.55
2023-02-22T18:03:29.067Z,9.53
2023-02-22T18:05:59.047Z,9.54
2023-02-22T18:08:31.078Z,9.53
2023-02-22T18:11:02.059Z,9.51
2023-02-22T18:13:31.237Z,9.50
2023-02-22T18:16:00.646Z,9.45
2023-02-22T18:18:29.043Z,9.46
2023-02-22T18:20:59.719Z,9.47
2023-02-22T18:23:31.173Z,9.49
2023-02-22T18:26:10.681Z,9.48
2023-02-22T18:28:39.634Z,9.45
2023-02-22T18:31:08.915Z,9.45
2023-02-22T18:33:36.879Z,9.42
2023-02-22T18:36:05.305Z,9.42
2023-02-22T18:38:34.582Z,9.40
2023-02-22T18:41:04.674Z,9.39
2023-02-22T18:43:34.211Z,9.35
2023-02-22T18:46:10.355Z,9.35
2023-02-22T18:48:38.930Z,9.37
2023-02-22T18:51:09.774Z,9.32
2023-02-22T18:53:40.885Z,9.34
2023-02-22T18:56:11.119Z,9.32
2023-02-22T18:58:39.644Z,9.31
2023-02-22T19:01:08.084Z,9.27
2023-02-22T19:03:38.138Z,9.25
2023-02-22T19:06:08.949Z,9.22
2023-02-22T19:08:39.510Z,9.24
2023-02-22T19:11:11.398Z,9.22
2023-02-22T19:13:39.525Z,9.22
2023-02-22T19:16:09.140Z,9.22
2023-02-22T19:18:38.204Z,9.18
2023-02-22T19:21:08.970Z,9.19
2023-02-22T19:23:38.119Z,9.17
2023-02-22T19:26:09.416Z,9.16
2023-02-22T19:28:38.671Z,9.13
2023-02-22T19:31:18.309Z,9.15
2023-02-22T19:33:51.162Z,9.17
2023-02-22T19:36:20.179Z,9.13
2023-02-22T19:38:48.289Z,9.14
2023-02-22T19:41:18.362Z,9.08
2023-02-22T19:43:49.479Z,9.07
2023-02-22T19:46:17.943Z,9.05
2023-02-22T19:48:46.532Z,9.04
2023-02-22T19:51:17.308Z,9.02
2023-02-22T19:53:46.168Z,9.03
2023-02-22T19:56:16.738Z,9.01
2023-02-22T19:58:48.373Z,9.03
2023-02-22T20:01:22.808Z,9.01
2023-02-22T20:03:54.122Z,8.98
2023-02-22T20:06:26.455Z,8.93
2023-02-22T20:08:55.008Z,8.88
2023-02-22T20:11:23.882Z,8.84
2023-02-22T20:13:53.369Z,8.83
2023-02-22T20:16:21.270Z,8.81
2023-02-22T20:18:50.079Z,8.82
2023-02-22T20:21:22.238Z,8.83
2023-02-22T20:23:50.094Z,8.80
2023-02-22T20:26:20.023Z,8.81
2023-02-22T20:28:47.907Z,8.78
2023-02-22T20:31:18.167Z,8.79
2023-02-22T20:33:48.126Z,8.80
2023-02-22T20:36:18.273Z,8.79
2023-02-22T20:38:46.999Z,8.74
2023-02-22T20:41:17.360Z,8.68
2023-02-22T20:43:45.323Z,8.67
2023-02-22T20:46:13.208Z,8.67
2023-02-22T20:48:42.551Z,8.66
2023-02-22T20:51:11.986Z,8.62
2023-02-22T20:53:41.882Z,8.59
2023-02-22T20:56:13.278Z,8.51
2023-02-22T20:58:41.139Z,8.52
2023-02-22T21:01:12.106Z,8.48
2023-02-22T21:03:40.745Z,8.42
2023-02-22T21:06:11.785Z,8.43
2023-02-22T21:08:40.264Z,8.34
2023-02-22T21:11:12.054Z,8.34
2023-02-22T21:13:40.582Z,8.27
2023-02-22T21:16:10.252Z,8.21
2023-02-22T21:18:38.508Z,8.16
2023-02-22T21:21:10.212Z,8.07
2023-02-22T21:23:40.531Z,8.06
2023-02-22T21:26:10.863Z,8.03
2023-02-22T21:28:53.874Z,8.02
2023-02-22T21:31:24.103Z,7.96
2023-02-22T21:33:54.195Z,7.94
2023-02-22T21:36:25.375Z,7.90
2023-02-22T21:38:56.945Z,7.89
2023-02-22T21:41:27.698Z,7.81
2023-02-22T21:43:56.962Z,7.78
2023-02-22T21:46:29.655Z,7.75
2023-02-22T21:48:59.152Z,7.76
2023-02-22T21:51:31.889Z,7.74
2023-02-22T21:54:03.240Z,7.69
2023-02-22T21:56:32.986Z,7.70
2023-02-22T21:59:03.012Z,7.71
2023-02-22T22:01:33.141Z,7.67
2023-02-22T22:04:02.092Z,7.65
2023-02-22T22:06:32.016Z,7.68
2023-02-22T22:09:01.522Z,7.57
2023-02-22T22:11:30.770Z,7.55
2023-02-22T22:13:59.753Z,7.49
2023-02-22T22:16:29.704Z,7.43
2023-02-22T22:18:58.268Z,7.41
2023-02-22T22:21:26.287Z,7.43
2023-02-22T22:23:56.120Z,7.40
2023-02-22T22:26:27.325Z,7.36
2023-02-22T22:28:57.522Z,7.33
2023-02-22T22:31:27.119Z,7.37
2023-02-22T22:33:56.166Z,7.34
2023-02-22T22:36:26.084Z,7.38
2023-02-22T22:38:57.293Z,7.41
2023-02-22T22:41:28.873Z,7.40
2023-02-22T22:43:57.122Z,7.42
2023-02-22T22:46:25.048Z,7.43
2023-02-22T22:48:52.951Z,7.42
2023-02-22T22:51:22.021Z,7.44
2023-02-22T22:53:51.433Z,7.47
2023-02-22T22:56:21.577Z,7.49
2023-02-22T22:58:52.923Z,7.51
2023-02-22T23:01:27.092Z,7.49
2023-02-22T23:03:59.277Z,7.53
2023-02-22T23:06:30.967Z,7.51
2023-02-22T23:09:00.997Z,7.51
2023-02-22T23:11:33.582Z,7.53
2023-02-22T23:14:05.565Z,7.52
2023-02-22T23:16:33.751Z,7.56
2023-02-22T23:19:01.707Z,7.55
2023-02-22T23:21:29.570Z,7.59
2023-02-22T23:23:58.490Z,7.59
2023-02-22T23:26:27.533Z,7.58
2023-02-22T23:28:57.419Z,7.58
2023-02-22T23:31:28.607Z,7.57
2023-02-22T23:33:58.790Z,7.58
2023-02-22T23:36:28.143Z,7.56
2023-02-22T23:38:56.059Z,7.53
2023-02-22T23:41:25.178Z,7.50
2023-02-22T23:43:53.850Z,7.52
2023-02-22T23:46:21.893Z,7.55
2023-02-22T23:48:54.543Z,7.57
2023-02-22T23:51:25.681Z,7.57
2023-02-22T23:53:55.827Z,7.59
2023-02-22T23:56:26.498Z,7.61
2023-02-22T23:58:57.331Z,7.60
